Time;durP1;ratioP1;P1;durP2;ratioP2;P2;SDS_P1;SDS_P2;PMS_P1;PMS_P2;Temp;Humidity;BMP_temperature;BMP_pressure;BME280_temperature;BME280_humidity;BME280_pressure;Samples;Min_cycle;Max_cycle;Signal;HPM_P1;HPM_P2
2024/01/20 00:01:31;;;;;;;19.10;11.00;;;;;;;-1.69;85.17;100162.38;215884;1272;141135;-73
2024/01/20 00:06:34;;;;;;;23.10;11.50;;;;;;;-1.70;85.28;100164.38;215437;1267;141361;-73
2024/01/20 00:11:40;;;;;;;23.60;10.70;;;;;;;-1.68;85.45;100166.45;215536;1267;140993;-73
2024/01/20 00:16:45;;;;;;;27.70;11.50;;;;;;;-1.67;85.35;100157.73;215340;1267;141095;-73
2024/01/20 00:21:48;;;;;;;19.30;10.80;;;;;;;-1.67;85.18;100160.84;215415;1272;141045;-74
2024/01/20 00:26:52;;;;;;;16.60;8.60;;;;;;;-1.68;85.11;100152.39;215672;1267;141291;-74
2024/01/20 00:31:55;;;;;;;18.90;9.60;;;;;;;-1.68;85.22;100156.88;216093;1267;141444;-73
2024/01/20 00:37:00;;;;;;;18.80;9.90;;;;;;;-1.68;84.91;100152.55;216057;1267;141339;-73
2024/01/20 00:42:03;;;;;;;17.10;9.70;;;;;;;-1.70;85.24;100146.23;215386;1268;140785;-73
2024/01/20 00:47:06;;;;;;;18.90;9.40;;;;;;;-1.73;84.92;100148.42;215410;1267;141558;-72
2024/01/20 00:52:10;;;;;;;13.40;8.50;;;;;;;-1.77;84.90;100139.94;215450;1267;141581;-70
2024/01/20 00:57:13;;;;;;;22.20;7.90;;;;;;;-1.83;84.88;100148.17;215336;1269;140754;-72
2024/01/20 01:02:18;;;;;;;22.30;10.10;;;;;;;-1.91;84.71;100155.89;216519;1267;140806;-77
2024/01/20 01:07:21;;;;;;;17.20;8.40;;;;;;;-1.97;84.57;100158.23;216289;1267;142698;-77
2024/01/20 01:12:24;;;;;;;12.30;7.10;;;;;;;-2.01;84.76;100159.67;215410;1273;140629;-74
2024/01/20 01:17:27;;;;;;;19.30;8.80;;;;;;;-2.04;84.79;100163.58;215976;1267;141413;-77
2024/01/20 01:22:30;;;;;;;20.60;8.30;;;;;;;-2.05;84.89;100168.70;215553;1270;141830;-75
2024/01/20 01:27:34;;;;;;;15.90;8.10;;;;;;;-2.02;85.06;100178.62;215636;1267;142620;-71
2024/01/20 01:32:36;;;;;;;14.50;7.40;;;;;;;-2.01;85.05;100183.40;216406;1267;141482;-72
2024/01/20 01:37:39;;;;;;;12.70;7.50;;;;;;;-2.01;85.11;100186.14;217040;1267;141121;-74
2024/01/20 01:42:46;;;;;;;17.40;7.50;;;;;;;-2.02;85.23;100191.82;215332;1267;142944;-75
2024/01/20 01:47:49;;;;;;;18.30;10.50;;;;;;;-2.01;85.10;100196.46;215200;1268;140854;-72
2024/01/20 01:52:52;;;;;;;12.90;6.90;;;;;;;-2.01;85.20;100192.39;215609;1267;141597;-72
2024/01/20 01:57:56;;;;;;;13.00;7.20;;;;;;;-2.00;85.06;100192.69;215461;1269;141655;-73
2024/01/20 02:03:09;;;;;;;15.80;9.50;;;;;;;-2.01;85.17;100196.43;216306;1267;140769;-73
2024/01/20 02:08:13;;;;;;;14.20;8.70;;;;;;;-2.01;85.18;100200.98;215904;1268;140815;-75
2024/01/20 02:13:20;;;;;;;22.50;8.00;;;;;;;-2.02;85.09;100202.27;215282;1268;141672;-73
2024/01/20 02:18:23;;;;;;;11.00;6.40;;;;;;;-2.03;85.29;100188.93;216474;1267;141441;-73
2024/01/20 02:23:26;;;;;;;14.20;6.30;;;;;;;-2.00;85.19;100176.33;215612;1269;141168;-73
2024/01/20 02:29:22;;;;;;;13.00;7.30;;;;;;;-2.02;85.02;100170.95;216760;1267;140462;-74
2024/01/20 02:34:26;;;;;;;15.90;7.70;;;;;;;-2.05;85.08;100172.08;216883;1267;141286;-72
2024/01/20 02:39:30;;;;;;;11.80;5.80;;;;;;;-2.07;85.19;100167.69;216684;1267;141409;-74
2024/01/20 02:44:34;;;;;;;13.80;5.80;;;;;;;-2.06;84.96;100165.70;218098;1267;141265;-76
2024/01/20 03:18:00;;;;;;;8.40;5.90;;;;;;;-1.95;84.98;100178.27;216459;1282;658036;-75
2024/01/20 03:23:06;;;;;;;14.10;7.20;;;;;;;-2.00;85.15;100179.95;216331;1275;138719;-76
2024/01/20 03:28:11;;;;;;;12.50;6.00;;;;;;;-2.04;85.06;100182.58;214681;1273;310433;-73
2024/01/20 03:33:15;;;;;;;13.30;6.40;;;;;;;-2.07;85.18;100188.12;215483;1272;140630;-75
2024/01/20 03:38:20;;;;;;;14.60;6.50;;;;;;;-2.09;85.34;100196.31;215483;1269;139954;-74
2024/01/20 03:43:25;;;;;;;17.80;6.70;;;;;;;-2.12;85.27;100202.48;215349;1273;140360;-74
2024/01/20 03:48:31;;;;;;;11.30;6.30;;;;;;;-2.14;85.42;100198.35;215666;1267;139868;-74
2024/01/20 03:53:36;;;;;;;13.00;7.00;;;;;;;-2.13;85.53;100194.75;216371;1268;139216;-74
2024/01/20 03:58:41;;;;;;;12.60;6.50;;;;;;;-2.09;85.58;100191.98;215393;1272;140859;-73
2024/01/20 04:03:46;;;;;;;11.10;6.20;;;;;;;-2.05;85.53;100197.10;215676;1272;139154;-74
2024/01/20 04:08:51;;;;;;;8.40;5.10;;;;;;;-2.01;85.41;100200.23;215600;1267;140102;-75
2024/01/20 04:13:55;;;;;;;10.00;6.80;;;;;;;-1.98;85.36;100200.52;215664;1271;141138;-76
2024/01/20 04:18:59;;;;;;;14.00;7.20;;;;;;;-1.97;85.26;100205.09;215596;1267;140153;-75
2024/01/20 04:24:04;;;;;;;13.00;7.00;;;;;;;-1.95;85.04;100208.71;216226;1265;139354;-75
2024/01/20 04:29:09;;;;;;;14.00;7.00;;;;;;;-1.92;85.02;100220.51;215924;1267;139774;-75
2024/01/20 04:34:13;;;;;;;8.40;5.90;;;;;;;-1.93;85.04;100214.09;215593;1272;140917;-76
2024/01/20 04:39:18;;;;;;;11.50;7.70;;;;;;;-1.94;84.80;100219.24;215786;1267;139154;-75
2024/01/20 04:44:23;;;;;;;16.90;7.30;;;;;;;-1.94;84.69;100225.89;216516;1266;139306;-75
2024/01/20 04:49:28;;;;;;;10.70;5.80;;;;;;;-1.95;84.71;100225.98;216456;1260;141304;-75
2024/01/20 04:54:32;;;;;;;14.80;6.40;;;;;;;-1.94;84.61;100234.45;219233;1260;140379;-73
2024/01/20 04:59:37;;;;;;;17.20;6.30;;;;;;;-1.95;84.48;100240.11;217064;1260;139125;-73
2024/01/20 05:04:41;;;;;;;12.60;6.70;;;;;;;-1.93;84.39;100243.77;216654;1260;139090;-74
2024/01/20 05:09:47;;;;;;;10.00;5.30;;;;;;;-1.95;84.21;100242.21;216552;1264;140709;-74
2024/01/20 05:14:55;;;;;;;11.10;7.00;;;;;;;-1.97;84.33;100246.37;216133;1260;139375;-74
2024/01/20 05:19:59;;;;;;;17.90;7.80;;;;;;;-1.98;84.20;100248.38;216398;1260;140544;-73
2024/01/20 05:25:04;;;;;;;13.30;7.60;;;;;;;-2.01;84.33;100247.51;216725;1263;139947;-73
2024/01/20 05:30:09;;;;;;;13.20;7.10;;;;;;;-2.03;84.17;100247.95;216816;1257;140306;-73
2024/01/20 05:35:14;;;;;;;12.90;8.20;;;;;;;-2.02;84.27;100251.55;218069;1257;140247;-73
2024/01/20 05:40:19;;;;;;;14.70;6.90;;;;;;;-2.02;84.20;100265.16;216938;1262;139703;-72
2024/01/20 05:45:24;;;;;;;12.00;5.70;;;;;;;-2.06;84.34;100275.19;217626;1257;248082;-73
2024/01/20 05:50:29;;;;;;;13.90;7.60;;;;;;;-2.06;84.24;100275.58;217416;1257;140501;-72
2024/01/20 05:55:35;;;;;;;14.40;7.30;;;;;;;-2.07;84.24;100280.59;217352;1257;139620;-73
2024/01/20 06:00:41;;;;;;;12.60;7.50;;;;;;;-2.06;84.42;100285.17;217766;1258;139473;-75
2024/01/20 06:05:45;;;;;;;20.80;7.80;;;;;;;-2.06;84.21;100280.67;217198;1257;139616;-73
2024/01/20 06:10:51;;;;;;;14.40;8.20;;;;;;;-2.07;84.34;100281.63;217011;1261;139335;-74
2024/01/20 06:15:56;;;;;;;11.80;5.80;;;;;;;-2.08;84.57;100271.95;216812;1261;140348;-74
2024/01/20 06:21:01;;;;;;;14.60;8.60;;;;;;;-2.09;84.54;100280.55;219322;1259;140920;-74
2024/01/20 06:26:06;;;;;;;15.20;7.90;;;;;;;-2.12;84.44;100288.29;217094;1263;142073;-74
2024/01/20 06:31:21;;;;;;;12.60;9.50;;;;;;;-2.13;85.27;100295.91;218370;1259;139447;-74
2024/01/20 06:36:27;;;;;;;9.40;6.40;;;;;;;-2.13;86.25;100298.69;218319;1259;141628;-74
2024/01/20 06:41:32;;;;;;;13.90;8.00;;;;;;;-2.11;85.83;100292.91;217103;1260;139496;-73
2024/01/20 06:46:37;;;;;;;14.60;8.70;;;;;;;-2.10;85.46;100297.00;217588;1262;140458;-75
2024/01/20 06:51:43;;;;;;;14.80;8.00;;;;;;;-2.08;85.41;100298.75;217591;1259;139808;-73
2024/01/20 06:56:46;;;;;;;15.00;7.70;;;;;;;-2.09;85.18;100295.55;217015;1260;139555;-70
2024/01/20 07:01:50;;;;;;;12.70;7.00;;;;;;;-2.07;85.09;100295.48;218714;1259;140271;-73
2024/01/20 07:06:54;;;;;;;18.00;9.90;;;;;;;-2.01;85.24;100309.31;217434;1260;140104;-74
2024/01/20 07:11:58;;;;;;;13.70;8.30;;;;;;;-1.99;85.17;100315.52;217983;1259;140489;-74
2024/01/20 07:17:05;;;;;;;18.10;10.30;;;;;;;-1.97;84.98;100321.99;217036;1260;140046;-73
2024/01/20 07:22:09;;;;;;;14.70;8.80;;;;;;;-1.95;85.05;100326.01;217860;1260;140484;-72
2024/01/20 07:27:14;;;;;;;15.60;9.10;;;;;;;-1.92;84.92;100330.59;216864;1258;140432;-70
2024/01/20 07:32:19;;;;;;;12.70;8.50;;;;;;;-1.91;84.87;100339.05;217105;1260;140614;-73
2024/01/20 07:37:24;;;;;;;10.70;6.80;;;;;;;-1.91;84.88;100347.59;216959;1262;139220;-68
2024/01/20 07:42:29;;;;;;;13.80;8.00;;;;;;;-1.88;84.96;100348.96;217232;1260;139621;-72
2024/01/20 07:47:34;;;;;;;20.60;9.90;;;;;;;-1.83;84.94;100347.62;217581;1261;141948;-74
2024/01/20 07:52:40;;;;;;;16.50;10.20;;;;;;;-1.79;84.79;100343.95;217830;1259;141981;-71
2024/01/20 07:57:46;;;;;;;14.30;8.70;;;;;;;-1.74;84.59;100341.23;216930;1261;139937;-73
2024/01/20 08:02:50;;;;;;;19.20;10.80;;;;;;;-1.71;84.64;100333.65;216989;1259;245060;-73
2024/01/20 08:07:54;;;;;;;11.90;7.20;;;;;;;-1.73;84.63;100343.56;219010;1256;141580;-73
2024/01/20 08:12:58;;;;;;;15.40;9.20;;;;;;;-1.69;84.66;100346.73;217086;1260;139607;-73
2024/01/20 08:18:03;;;;;;;14.90;8.90;;;;;;;-1.58;84.66;100349.90;217158;1256;140189;-73
2024/01/20 08:23:07;;;;;;;19.20;10.30;;;;;;;-1.46;84.59;100346.15;218297;1257;140514;-71
2024/01/20 08:28:13;;;;;;;21.60;12.20;;;;;;;-1.39;84.47;100350.08;217224;1257;139941;-74
2024/01/20 08:33:17;;;;;;;12.50;9.30;;;;;;;-1.29;84.28;100354.35;218131;1256;139896;-75
2024/01/20 08:38:22;;;;;;;17.50;8.90;;;;;;;-1.22;84.26;100358.91;218259;1256;139552;-74
2024/01/20 08:43:27;;;;;;;13.70;8.00;;;;;;;-1.12;83.83;100355.17;217359;1257;139779;-73
2024/01/20 08:48:31;;;;;;;22.90;10.20;;;;;;;-1.06;83.88;100353.23;218372;1256;140892;-75
2024/01/20 08:53:37;;;;;;;15.50;8.20;;;;;;;-0.98;83.86;100364.13;217279;1257;139886;-74
2024/01/20 08:58:42;;;;;;;16.80;9.40;;;;;;;-0.94;83.42;100368.71;218815;1256;140367;-75
2024/01/20 09:03:47;;;;;;;13.20;7.70;;;;;;;-0.90;83.32;100368.29;217018;1257;139745;-76
2024/01/20 09:08:52;;;;;;;15.80;8.70;;;;;;;-0.86;83.02;100368.60;216802;1256;140959;-74
2024/01/20 09:13:59;;;;;;;18.40;10.90;;;;;;;-0.86;82.73;100377.33;217035;1256;139917;-76
2024/01/20 09:19:04;;;;;;;16.20;10.00;;;;;;;-0.88;82.92;100385.88;216939;1256;139955;-74
2024/01/20 09:24:09;;;;;;;11.00;7.80;;;;;;;-0.89;82.74;100396.63;216916;1256;140563;-75
2024/01/20 09:29:13;;;;;;;20.00;8.20;;;;;;;-0.89;82.61;100403.89;216911;1256;140142;-76
2024/01/20 09:34:18;;;;;;;19.30;9.70;;;;;;;-0.90;82.33;100400.70;216795;1260;140034;-74
2024/01/20 09:39:21;;;;;;;14.00;8.90;;;;;;;-0.92;82.39;100406.35;216833;1256;139789;-74
2024/01/20 09:44:27;;;;;;;19.00;8.60;;;;;;;-0.94;82.47;100399.41;216845;1256;140834;-74
2024/01/20 09:49:31;;;;;;;18.40;10.40;;;;;;;-0.98;82.43;100399.88;217430;1257;140126;-72
2024/01/20 09:54:50;;;;;;;14.70;9.40;;;;;;;-1.01;82.28;100395.45;216987;1257;139933;-73
2024/01/20 09:59:56;;;;;;;18.00;9.90;;;;;;;-0.94;82.48;100402.02;216935;1257;139649;-74
2024/01/20 10:05:05;;;;;;;20.10;11.20;;;;;;;-0.92;82.34;100392.55;216593;1257;140674;-73
2024/01/20 10:10:21;;;;;;;14.10;10.00;;;;;;;-0.83;82.34;100380.62;217218;1257;140543;-73
2024/01/20 10:15:28;;;;;;;27.40;12.20;;;;;;;-0.59;82.56;100388.48;218406;1257;140565;-73
2024/01/20 10:20:37;;;;;;;16.60;9.10;;;;;;;-0.41;82.23;100387.45;216866;1260;140919;-73
2024/01/20 10:25:42;;;;;;;23.60;11.40;;;;;;;-0.33;81.85;100381.32;218650;1256;140954;-70
2024/01/20 10:30:47;;;;;;;22.10;12.20;;;;;;;-0.26;82.12;100381.80;217452;1256;140271;-75
2024/01/20 10:35:52;;;;;;;28.40;18.60;;;;;;;-0.31;81.48;100383.70;216952;1260;140206;-72
2024/01/20 10:40:58;;;;;;;31.60;17.90;;;;;;;-0.29;81.54;100376.02;219973;1257;140726;-77
2024/01/20 10:46:15;;;;;;;19.20;11.30;;;;;;;-0.19;81.61;100371.89;217391;1256;140347;-75
2024/01/20 10:51:26;;;;;;;16.20;10.90;;;;;;;-0.06;81.84;100372.17;216767;1257;141149;-78
2024/01/20 10:56:31;;;;;;;15.90;9.90;;;;;;;0.20;81.28;100368.83;217613;1256;140757;-73
2024/01/20 11:01:37;;;;;;;16.80;11.20;;;;;;;0.23;81.12;100363.80;217041;1256;139328;-77
2024/01/20 11:06:41;;;;;;;19.70;11.20;;;;;;;0.12;81.18;100379.66;216962;1256;139941;-77
2024/01/20 11:12:01;;;;;;;15.00;9.40;;;;;;;0.01;80.86;100389.66;218249;1256;139543;-74
2024/01/20 11:17:13;;;;;;;18.30;9.40;;;;;;;-0.05;81.12;100379.02;216748;1256;141096;-76
2024/01/20 11:22:39;;;;;;;16.70;10.70;;;;;;;-0.09;80.96;100377.89;217296;1259;139426;-76
2024/01/20 11:27:49;;;;;;;17.10;11.40;;;;;;;-0.13;80.83;100377.00;216664;1257;140279;-77
2024/01/20 11:32:56;;;;;;;17.10;10.20;;;;;;;-0.09;81.08;100388.90;216924;1257;139656;-75
2024/01/20 11:38:01;;;;;;;15.10;9.40;;;;;;;0.00;81.22;100390.21;216999;1259;140372;-76
2024/01/20 11:43:06;;;;;;;21.00;10.40;;;;;;;0.03;80.42;100391.14;217149;1257;139513;-73
2024/01/20 11:48:11;;;;;;;15.60;11.00;;;;;;;0.12;81.05;100394.09;217056;1256;139898;-73
2024/01/20 11:53:21;;;;;;;21.40;12.90;;;;;;;0.13;80.75;100401.17;217108;1257;140128;-74
2024/01/20 11:58:27;;;;;;;30.80;12.40;;;;;;;0.05;80.79;100402.66;217760;1259;139821;-72
2024/01/20 12:03:33;;;;;;;24.40;11.40;;;;;;;0.00;80.29;100405.93;216965;1257;140530;-73
2024/01/20 12:08:40;;;;;;;23.20;11.90;;;;;;;-0.03;80.35;100403.27;217956;1256;140669;-72
2024/01/20 12:13:48;;;;;;;21.40;11.30;;;;;;;-0.00;80.46;100402.86;217335;1256;140147;-72
2024/01/20 12:18:52;;;;;;;18.20;9.40;;;;;;;0.00;80.29;100388.98;216987;1256;140113;-72
2024/01/20 12:23:56;;;;;;;12.70;8.50;;;;;;;0.02;80.49;100378.88;217287;1259;140134;-71
2024/01/20 12:29:02;;;;;;;15.80;11.10;;;;;;;0.08;80.46;100370.22;217224;1256;139804;-72
2024/01/20 12:34:06;;;;;;;17.20;10.60;;;;;;;0.09;80.46;100375.87;217188;1257;139992;-73
2024/01/20 12:39:11;;;;;;;15.30;8.90;;;;;;;0.07;80.16;100365.23;217309;1259;141038;-72
2024/01/20 12:44:17;;;;;;;14.80;9.60;;;;;;;0.13;80.54;100359.98;217129;1258;139868;-74
2024/01/20 12:49:20;;;;;;;19.40;8.90;;;;;;;0.22;80.33;100350.26;217608;1257;140196;-74
2024/01/20 12:54:25;;;;;;;13.00;9.50;;;;;;;0.32;80.02;100352.98;217115;1257;141541;-73
2024/01/20 12:59:31;;;;;;;12.30;7.60;;;;;;;0.45;80.47;100353.26;217061;1257;139927;-73
2024/01/20 13:04:36;;;;;;;16.20;9.00;;;;;;;0.39;80.20;100352.48;217045;1257;141302;-75
2024/01/20 13:09:40;;;;;;;20.50;9.90;;;;;;;0.39;79.84;100358.06;217145;1259;139878;-75
2024/01/20 13:14:46;;;;;;;13.90;9.30;;;;;;;0.28;79.84;100369.79;217060;1257;139974;-74
2024/01/20 13:19:52;;;;;;;16.40;9.40;;;;;;;0.15;79.58;100366.06;217346;1257;140355;-72
2024/01/20 13:24:57;;;;;;;12.20;9.00;;;;;;;0.07;79.95;100373.16;216819;1257;140267;-71
2024/01/20 13:30:01;;;;;;;17.20;9.10;;;;;;;0.11;80.17;100377.95;216904;1256;142666;-75
2024/01/20 13:35:07;;;;;;;16.60;8.40;;;;;;;0.08;80.21;100389.79;216980;1256;140316;-76
2024/01/20 13:40:12;;;;;;;16.90;9.40;;;;;;;0.01;80.20;100393.27;217157;1259;140613;-76
2024/01/20 13:45:17;;;;;;;19.50;12.10;;;;;;;-0.05;80.29;100396.31;217189;1257;140383;-74
2024/01/20 13:50:24;;;;;;;12.10;8.40;;;;;;;-0.11;80.13;100389.40;217259;1259;139994;-76
2024/01/20 13:55:29;;;;;;;14.90;9.10;;;;;;;-0.15;80.29;100397.29;217035;1257;139843;-76
2024/01/20 14:00:33;;;;;;;13.00;7.80;;;;;;;-0.20;80.13;100399.33;217311;1257;140423;-75
2024/01/20 14:05:37;;;;;;;22.80;11.30;;;;;;;-0.20;80.43;100405.85;217129;1257;139727;-71
2024/01/20 14:10:41;;;;;;;12.10;8.00;;;;;;;-0.23;80.63;100417.45;217315;1259;141052;-74
2024/01/20 14:15:46;;;;;;;16.10;8.90;;;;;;;-0.28;80.65;100420.26;218058;1257;140575;-74
2024/01/20 14:20:51;;;;;;;19.50;10.20;;;;;;;-0.29;80.54;100418.06;217555;1257;140085;-70
2024/01/20 14:25:55;;;;;;;19.00;10.60;;;;;;;-0.32;80.68;100417.33;218683;1259;140669;-76
2024/01/20 14:30:59;;;;;;;16.60;9.00;;;;;;;-0.32;80.80;100423.23;219072;1259;140345;-73
2024/01/20 14:36:03;;;;;;;17.90;10.50;;;;;;;-0.36;80.62;100428.85;217138;1257;139505;-75
2024/01/20 14:41:10;;;;;;;12.10;7.80;;;;;;;-0.38;80.78;100429.58;217918;1259;140120;-77
2024/01/20 14:46:14;;;;;;;14.10;10.30;;;;;;;-0.39;80.89;100432.62;217144;1256;139623;-74
2024/01/20 14:51:19;;;;;;;13.60;7.50;;;;;;;-0.41;81.10;100444.73;217440;1257;141449;-72
2024/01/20 14:56:28;;;;;;;16.50;7.80;;;;;;;-0.45;81.04;100445.73;218067;1259;140383;-73
2024/01/20 15:01:34;;;;;;;11.10;6.70;;;;;;;-0.46;81.14;100447.30;217380;1256;140819;-73
2024/01/20 15:06:38;;;;;;;17.70;8.50;;;;;;;-0.49;81.13;100449.67;217357;1255;140407;-72
2024/01/20 15:11:42;;;;;;;12.10;8.80;;;;;;;-0.53;81.45;100461.27;217407;1259;139613;-76
2024/01/20 15:16:47;;;;;;;14.10;9.80;;;;;;;-0.62;81.83;100462.45;217340;1257;140022;-76
2024/01/20 15:21:52;;;;;;;13.40;9.40;;;;;;;-0.69;82.26;100469.73;217376;1259;140809;-76
2024/01/20 15:26:57;;;;;;;14.00;9.10;;;;;;;-0.75;82.43;100474.52;217347;1259;139803;-72
2024/01/20 15:32:01;;;;;;;12.10;9.60;;;;;;;-0.77;82.66;100475.24;216932;1256;634901;-77
2024/01/20 15:37:05;;;;;;;14.90;8.50;;;;;;;-0.78;82.73;100480.93;217695;1257;247118;-76
2024/01/20 15:42:09;;;;;;;23.40;12.90;;;;;;;-0.80;82.67;100485.04;217597;1257;140296;-75
2024/01/20 15:47:13;;;;;;;10.20;7.50;;;;;;;-0.83;82.98;100495.68;217588;1257;139677;-73
2024/01/20 15:52:17;;;;;;;17.30;9.70;;;;;;;-0.86;83.11;100500.29;217484;1259;140736;-73
2024/01/20 15:57:22;;;;;;;13.00;9.00;;;;;;;-0.85;83.54;100507.87;218006;1255;141853;-70
2024/01/20 16:02:26;;;;;;;17.40;10.00;;;;;;;-0.86;83.64;100513.79;217966;1259;141272;-72
2024/01/20 16:07:30;;;;;;;13.80;9.20;;;;;;;-0.90;83.71;100515.64;218075;1255;140088;-72
2024/01/20 16:12:34;;;;;;;18.20;10.30;;;;;;;-0.89;83.85;100526.05;219726;1258;140232;-73
2024/01/20 16:17:40;;;;;;;14.10;9.70;;;;;;;-0.88;84.12;100527.38;218271;1256;139781;-75
2024/01/20 16:22:45;;;;;;;17.30;8.90;;;;;;;-0.86;83.87;100530.51;220196;1255;141283;-75
2024/01/20 16:27:48;;;;;;;19.80;11.30;;;;;;;-0.85;83.92;100537.08;218370;1257;141089;-75
2024/01/20 16:32:53;;;;;;;12.80;9.10;;;;;;;-0.84;84.07;100549.98;217879;1259;140110;-74
2024/01/20 16:38:01;;;;;;;18.60;12.90;;;;;;;-0.81;84.09;100555.17;219170;1256;139571;-74
2024/01/20 16:43:06;;;;;;;15.10;9.60;;;;;;;-0.78;83.87;100560.48;217650;1261;141819;-74
2024/01/20 16:48:11;;;;;;;15.50;9.50;;;;;;;-0.76;84.03;100548.71;217222;1256;139909;-73
2024/01/20 16:53:16;;;;;;;17.20;10.00;;;;;;;-0.73;83.87;100555.59;218268;1258;139482;-75
2024/01/20 16:58:19;;;;;;;18.10;10.90;;;;;;;-0.70;83.99;100562.17;218003;1258;142139;-73
2024/01/20 17:03:25;;;;;;;12.00;9.50;;;;;;;-0.67;83.69;100573.58;217371;1260;139663;-74
2024/01/20 17:08:29;;;;;;;15.70;9.10;;;;;;;-0.64;83.75;100583.09;217256;1261;140741;-72
2024/01/20 17:13:34;;;;;;;12.90;6.70;;;;;;;-0.61;83.71;100586.83;217322;1257;140235;-71
2024/01/20 17:18:38;;;;;;;12.40;8.50;;;;;;;-0.61;83.81;100594.80;217302;1256;140302;-73
2024/01/20 17:23:43;;;;;;;13.30;9.90;;;;;;;-0.60;83.87;100593.20;217354;1256;140407;-69
2024/01/20 17:28:48;;;;;;;18.00;8.30;;;;;;;-0.58;83.78;100596.83;217178;1257;140379;-71
2024/01/20 17:33:52;;;;;;;17.20;11.20;;;;;;;-0.61;83.91;100598.86;217697;1257;140650;-72
2024/01/20 17:38:56;;;;;;;17.30;10.30;;;;;;;-0.61;83.79;100609.52;217674;1259;139955;-72
2024/01/20 17:44:00;;;;;;;15.80;9.40;;;;;;;-0.63;83.90;100622.25;217360;1257;140914;-76
2024/01/20 17:49:05;;;;;;;17.10;11.20;;;;;;;-0.62;83.88;100636.34;217187;1259;140746;-71
2024/01/20 17:54:10;;;;;;;11.70;8.10;;;;;;;-0.60;84.03;100650.39;217562;1257;141729;-71
2024/01/20 17:59:14;;;;;;;20.40;10.20;;;;;;;-0.58;84.03;100657.02;219169;1257;140143;-71
2024/01/20 18:04:18;;;;;;;13.20;7.60;;;;;;;-0.58;83.88;100661.41;217533;1260;140446;-73
2024/01/20 18:09:24;;;;;;;17.10;11.20;;;;;;;-0.58;84.02;100662.60;217739;1257;139503;-74
2024/01/20 18:14:28;;;;;;;18.10;11.20;;;;;;;-0.58;83.78;100677.78;217106;1256;140271;-74
2024/01/20 18:19:32;;;;;;;17.80;10.70;;;;;;;-0.57;84.36;100686.95;216916;1256;140384;-71
2024/01/20 18:24:37;;;;;;;21.20;11.20;;;;;;;-0.55;84.07;100690.27;218509;1256;140589;-71
2024/01/20 18:29:41;;;;;;;14.20;9.20;;;;;;;-0.52;84.44;100701.36;220031;1258;140217;-77
2024/01/20 18:34:46;;;;;;;12.00;6.10;;;;;;;-0.50;84.33;100705.02;218822;1261;140626;-76
2024/01/20 18:39:51;;;;;;;21.80;10.50;;;;;;;-0.48;83.95;100710.78;217010;1262;141384;-76
2024/01/20 18:44:55;;;;;;;13.70;9.60;;;;;;;-0.46;84.05;100708.66;216641;1261;140688;-72
2024/01/20 18:49:59;;;;;;;17.90;9.80;;;;;;;-0.45;84.17;100718.53;218508;1262;139919;-71
2024/01/20 18:55:04;;;;;;;14.00;7.00;;;;;;;-0.43;84.22;100722.55;216971;1262;140005;-70
2024/01/20 19:00:09;;;;;;;13.40;10.00;;;;;;;-0.42;84.31;100730.85;218173;1260;140910;-71
2024/01/20 19:05:13;;;;;;;13.60;7.30;;;;;;;-0.41;84.20;100740.15;217796;1257;140002;-72
2024/01/20 19:10:17;;;;;;;14.60;9.30;;;;;;;-0.39;84.46;100743.45;216900;1262;140521;-71
2024/01/20 19:15:22;;;;;;;25.70;11.30;;;;;;;-0.38;84.44;100744.97;217846;1260;141872;-71
2024/01/20 19:20:27;;;;;;;29.90;12.20;;;;;;;-0.37;84.30;100753.11;217389;1257;139989;-72
2024/01/20 19:25:31;;;;;;;28.20;11.60;;;;;;;-0.36;84.49;100767.96;217467;1259;140290;-73
2024/01/20 19:30:36;;;;;;;20.70;10.50;;;;;;;-0.35;84.59;100773.52;217365;1256;140948;-73
2024/01/20 19:35:40;;;;;;;16.80;10.00;;;;;;;-0.34;84.48;100781.61;217191;1258;140034;-72
2024/01/20 19:40:45;;;;;;;22.50;13.40;;;;;;;-0.33;84.43;100785.09;217531;1259;233273;-74
2024/01/20 19:45:51;;;;;;;14.30;9.40;;;;;;;-0.33;84.82;100788.58;217335;1262;140537;-74
2024/01/20 19:50:56;;;;;;;25.50;11.30;;;;;;;-0.34;84.70;100798.91;218584;1257;154004;-75
2024/01/20 19:56:01;;;;;;;20.50;11.40;;;;;;;-0.29;84.75;100807.77;218931;1259;151913;-74
2024/01/20 20:01:05;;;;;;;18.10;10.50;;;;;;;-0.27;84.87;100812.42;217404;1259;141297;-74
2024/01/20 20:06:11;;;;;;;21.90;11.90;;;;;;;-0.24;84.96;100820.02;218985;1257;140478;-75
2024/01/20 20:11:17;;;;;;;21.90;10.10;;;;;;;-0.21;84.56;100823.44;217417;1257;139747;-74
2024/01/20 20:16:21;;;;;;;25.40;11.20;;;;;;;-0.17;84.72;100826.02;220237;1257;140546;-77
2024/01/20 20:21:25;;;;;;;19.90;11.70;;;;;;;-0.14;84.78;100840.27;217327;1258;141615;-76
2024/01/20 20:26:30;;;;;;;14.50;8.50;;;;;;;-0.13;84.69;100846.33;217410;1260;140470;-74
2024/01/20 20:31:34;;;;;;;19.70;7.10;;;;;;;-0.16;84.49;100847.21;217420;1260;140267;-73
2024/01/20 20:36:39;;;;;;;20.30;12.10;;;;;;;-0.15;84.80;100844.18;217235;1257;140920;-73
2024/01/20 20:41:44;;;;;;;17.40;10.20;;;;;;;-0.12;84.88;100849.17;217011;1259;140781;-75
2024/01/20 20:46:48;;;;;;;17.00;8.70;;;;;;;-0.10;84.85;100855.77;217117;1261;139805;-77
2024/01/20 20:51:52;;;;;;;22.10;12.90;;;;;;;-0.11;84.95;100862.86;217109;1258;140761;-75
2024/01/20 20:56:57;;;;;;;21.30;12.70;;;;;;;-0.11;84.99;100869.54;216995;1260;140340;-73
2024/01/20 21:02:04;;;;;;;17.70;11.30;;;;;;;-0.09;84.90;100874.06;218464;1260;142054;-74
2024/01/20 21:07:10;;;;;;;14.80;9.00;;;;;;;-0.07;85.03;100875.09;217457;1257;139966;-75
2024/01/20 21:12:14;;;;;;;15.90;8.00;;;;;;;-0.06;84.95;100877.98;217850;1257;140267;-74
2024/01/20 21:17:20;;;;;;;24.90;11.80;;;;;;;-0.07;85.07;100888.33;218275;1260;140371;-73
2024/01/20 21:22:25;;;;;;;23.70;11.00;;;;;;;-0.07;84.92;100893.30;217247;1257;140148;-72
2024/01/20 21:27:31;;;;;;;20.40;8.90;;;;;;;-0.08;85.21;100907.84;217414;1260;140001;-74
2024/01/20 21:32:35;;;;;;;19.30;11.60;;;;;;;-0.08;85.26;100918.67;217474;1258;139766;-73
2024/01/20 21:37:41;;;;;;;27.70;13.30;;;;;;;-0.08;85.19;100924.66;217502;1256;140078;-72
2024/01/20 21:42:45;;;;;;;19.70;10.90;;;;;;;-0.08;85.12;100927.29;217791;1260;141435;-73
2024/01/20 21:47:50;;;;;;;17.90;10.00;;;;;;;-0.07;85.08;100926.46;217564;1259;141149;-72
2024/01/20 21:52:55;;;;;;;22.10;11.80;;;;;;;-0.08;85.21;100937.77;217107;1257;140224;-73
2024/01/20 21:57:59;;;;;;;24.30;10.90;;;;;;;-0.08;85.31;100933.22;217213;1256;140536;-73
2024/01/20 22:03:04;;;;;;;25.10;10.70;;;;;;;-0.07;85.32;100937.14;217218;1257;140147;-75
2024/01/20 22:08:11;;;;;;;23.50;9.70;;;;;;;-0.05;85.29;100933.96;217089;1258;140717;-74
2024/01/20 22:13:18;;;;;;;20.20;9.30;;;;;;;-0.02;85.43;100945.75;219887;1257;139851;-76
2024/01/20 22:18:22;;;;;;;23.30;12.20;;;;;;;0.01;85.41;100963.66;219753;1257;140264;-76
2024/01/20 22:23:26;;;;;;;16.10;9.50;;;;;;;0.06;85.18;100971.62;219799;1257;140925;-77
2024/01/20 22:28:31;;;;;;;17.90;11.50;;;;;;;0.07;85.18;100975.18;217795;1257;141033;-76
2024/01/20 22:33:35;;;;;;;19.50;10.20;;;;;;;0.08;85.12;100979.77;216938;1257;141491;-75
2024/01/20 22:38:40;;;;;;;16.70;9.10;;;;;;;0.10;85.10;100980.48;216613;1260;140493;-76
2024/01/20 22:43:45;;;;;;;25.70;12.70;;;;;;;0.10;85.28;100985.95;216959;1260;140974;-76
2024/01/20 22:48:49;;;;;;;17.00;9.50;;;;;;;0.10;84.90;100996.90;216817;1260;140187;-76
2024/01/20 22:53:55;;;;;;;21.10;12.10;;;;;;;0.09;85.23;101002.39;217073;1257;141645;-75
2024/01/20 22:59:00;;;;;;;19.80;11.30;;;;;;;0.08;85.19;101010.54;217086;1260;140201;-76
2024/01/20 23:04:05;;;;;;;20.90;11.00;;;;;;;0.09;85.05;101015.73;217051;1260;140559;-75
2024/01/20 23:09:10;;;;;;;26.90;13.50;;;;;;;0.12;85.10;101023.68;216942;1257;140669;-74
2024/01/20 23:14:15;;;;;;;17.90;11.40;;;;;;;0.12;85.39;101023.29;216842;1257;140470;-74